createdAt,value
2019-01-09T00:03:12.881Z,4.00
2019-01-09T00:08:14.200Z,3.70
2019-01-09T00:13:15.403Z,3.60
2019-01-09T00:18:16.484Z,3.60
2019-01-09T00:23:17.697Z,3.60
2019-01-09T00:28:19.028Z,3.50
2019-01-09T00:33:20.421Z,1.50
2019-01-09T00:38:21.782Z,3.20
2019-01-09T00:43:23.007Z,3.20
2019-01-09T00:48:24.283Z,3.10
2019-01-09T00:53:25.479Z,3.10
2019-01-09T00:58:26.686Z,3.50
2019-01-09T01:03:43.166Z,3.50
2019-01-09T01:09:00.349Z,3.30
2019-01-09T01:14:29.196Z,3.30
2019-01-09T01:19:40.318Z,3.30
2019-01-09T01:25:00.327Z,3.70
2019-01-09T01:30:29.479Z,3.40
2019-01-09T01:36:00.086Z,3.40
2019-01-09T01:41:16.967Z,3.30
2019-01-09T01:46:37.203Z,3.30
2019-01-09T01:51:50.858Z,3.20
2019-01-09T01:57:01.673Z,3.20
2019-01-09T02:02:29.635Z,3.10
2019-01-09T02:07:51.231Z,3.10
2019-01-09T02:13:04.990Z,2.80
2019-01-09T02:18:09.908Z,2.30
2019-01-09T02:23:23.168Z,2.30
2019-01-09T02:28:30.855Z,2.30
2019-01-09T02:33:31.962Z,2.30
2019-01-09T02:38:33.078Z,2.20
2019-01-09T02:43:34.194Z,2.00
2019-01-09T02:48:35.310Z,2.00
2019-01-09T02:53:36.483Z,2.10
2019-01-09T02:58:37.586Z,2.20
2019-01-09T03:03:38.681Z,2.30
2019-01-09T03:08:39.782Z,2.40
2019-01-09T03:13:40.859Z,2.20
2019-01-09T03:18:41.962Z,2.20
2019-01-09T03:23:43.053Z,2.60
2019-01-09T03:28:44.167Z,2.10
2019-01-09T03:33:45.352Z,1.90
2019-01-09T03:38:46.466Z,1.80
2019-01-09T03:43:47.765Z,2.10
2019-01-09T03:48:49.196Z,2.60
2019-01-09T03:53:50.295Z,1.90
2019-01-09T03:58:51.495Z,2.10
2019-01-09T04:03:52.583Z,2.00
2019-01-09T04:08:53.783Z,2.00
2019-01-09T04:13:54.866Z,2.00
2019-01-09T04:18:55.955Z,2.00
2019-01-09T04:23:57.043Z,2.10
2019-01-09T04:28:58.161Z,2.10
2019-01-09T04:33:59.261Z,2.00
2019-01-09T04:39:00.370Z,2.90
2019-01-09T04:44:01.563Z,1.90
2019-01-09T04:49:02.860Z,1.90
2019-01-09T04:54:03.952Z,1.80
2019-01-09T04:59:05.057Z,1.80
2019-01-09T05:04:06.160Z,1.80
2019-01-09T05:09:07.253Z,2.00
2019-01-09T05:14:08.339Z,1.90
2019-01-09T05:19:09.442Z,2.00
2019-01-09T05:24:10.535Z,2.00
2019-01-09T05:29:11.658Z,2.00
2019-01-09T05:34:12.759Z,2.00
2019-01-09T05:39:14.071Z,2.70
2019-01-09T05:44:15.180Z,2.00
2019-01-09T05:49:16.276Z,2.00
2019-01-09T05:54:17.395Z,2.00
2019-01-09T05:59:18.480Z,2.00
2019-01-09T06:04:19.580Z,2.10
2019-01-09T06:09:20.709Z,2.10
2019-01-09T06:14:21.808Z,2.10
2019-01-09T06:19:22.908Z,2.10
2019-01-09T06:24:24.005Z,2.10
2019-01-09T06:29:25.123Z,2.10
2019-01-09T06:34:26.220Z,2.10
2019-01-09T06:39:28.514Z,2.30
2019-01-09T06:44:29.606Z,2.10
2019-01-09T06:49:30.694Z,2.10
2019-01-09T06:54:31.789Z,2.00
2019-01-09T06:59:32.974Z,2.10
2019-01-09T07:04:34.091Z,2.10
2019-01-09T07:09:35.203Z,2.10
2019-01-09T07:14:36.295Z,2.10
2019-01-09T07:19:37.483Z,2.00
2019-01-09T07:24:38.588Z,1.90
2019-01-09T07:29:39.705Z,2.80
2019-01-09T07:34:40.800Z,1.80
2019-01-09T07:39:41.917Z,1.80
2019-01-09T07:44:43.010Z,1.80
2019-01-09T07:49:44.112Z,1.90
2019-01-09T07:54:45.211Z,1.80
2019-01-09T07:59:46.315Z,1.80
2019-01-09T08:04:47.463Z,1.80
2019-01-09T08:09:48.555Z,1.00
2019-01-09T08:14:49.685Z,2.10
2019-01-09T08:19:50.756Z,1.60
2019-01-09T08:24:51.866Z,1.60
2019-01-09T08:29:52.976Z,1.60
2019-01-09T08:34:54.084Z,1.70
2019-01-09T08:39:55.167Z,1.80
2019-01-09T08:44:56.290Z,1.70
2019-01-09T08:49:57.384Z,1.60
2019-01-09T08:54:58.483Z,1.30
2019-01-09T08:59:59.582Z,1.10
2019-01-09T09:05:00.681Z,0.90
2019-01-09T09:10:02.975Z,0.90
2019-01-09T09:15:10.470Z,0.90
2019-01-09T09:20:11.903Z,1.00
2019-01-09T09:25:12.986Z,1.10
2019-01-09T09:30:16.109Z,1.20
2019-01-09T09:35:17.213Z,1.10
2019-01-09T09:40:19.231Z,1.10
2019-01-09T09:45:20.366Z,1.10
2019-01-09T09:50:21.462Z,1.00
2019-01-09T09:55:22.679Z,1.50
2019-01-09T10:00:23.771Z,1.20
2019-01-09T10:05:24.961Z,1.30
2019-01-09T10:10:26.042Z,1.80
2019-01-09T10:15:27.139Z,1.50
2019-01-09T10:20:28.235Z,1.70
2019-01-09T10:25:29.536Z,2.00
2019-01-09T10:30:30.809Z,1.70
2019-01-09T10:35:31.912Z,1.50
2019-01-09T10:40:36.279Z,1.40
2019-01-09T10:45:36.224Z,1.40
2019-01-09T10:50:37.319Z,1.50
2019-01-09T10:55:38.412Z,1.60
2019-01-09T11:00:39.607Z,2.50
2019-01-09T11:05:40.735Z,1.60
2019-01-09T11:10:41.821Z,1.90
2019-01-09T11:15:43.020Z,1.60
2019-01-09T11:20:44.127Z,1.50
2019-01-09T11:25:45.216Z,1.60
2019-01-09T11:30:46.340Z,1.50
2019-01-09T11:35:47.443Z,1.40
2019-01-09T11:40:48.604Z,1.30
2019-01-09T11:45:49.727Z,1.30
2019-01-09T11:50:50.830Z,1.30
2019-01-09T11:55:51.938Z,1.30
2019-01-09T12:00:53.032Z,1.30
2019-01-09T12:05:54.127Z,1.30
2019-01-09T12:10:55.281Z,1.30
2019-01-09T12:15:56.424Z,1.40
2019-01-09T12:20:57.533Z,1.30
2019-01-09T12:25:58.640Z,1.20
2019-01-09T12:30:59.737Z,1.60
2019-01-09T12:36:00.837Z,1.20
2019-01-09T12:41:03.980Z,1.60
2019-01-09T12:46:05.300Z,1.20
2019-01-09T12:51:06.597Z,0.80
2019-01-09T12:56:07.713Z,0.70
2019-01-09T13:01:08.820Z,0.90
2019-01-09T13:06:10.014Z,1.40
2019-01-09T13:11:11.120Z,1.80
2019-01-09T13:16:12.225Z,2.20
2019-01-09T13:21:13.329Z,3.60
2019-01-09T13:26:14.399Z,3.20
2019-01-09T13:31:15.532Z,2.70
2019-01-09T13:36:16.679Z,2.50
2019-01-09T13:41:17.825Z,2.20
2019-01-09T13:46:19.045Z,1.80
2019-01-09T13:51:20.261Z,1.50
2019-01-09T13:56:21.587Z,1.50
2019-01-09T14:01:22.698Z,1.50
2019-01-09T14:06:23.808Z,1.40
2019-01-09T14:11:24.904Z,1.40
2019-01-09T14:16:25.994Z,1.50
2019-01-09T14:21:27.088Z,1.60
2019-01-09T14:26:28.198Z,1.70
2019-01-09T14:31:29.313Z,1.70
2019-01-09T14:36:30.416Z,1.60
2019-01-09T14:41:31.539Z,1.40
2019-01-09T14:46:32.654Z,1.30
2019-01-09T14:51:33.769Z,1.10
2019-01-09T14:56:34.863Z,0.80
2019-01-09T15:01:35.963Z,0.80
2019-01-09T15:06:37.161Z,0.80
2019-01-09T15:11:38.375Z,0.70
2019-01-09T15:16:39.585Z,1.40
2019-01-09T15:21:40.707Z,0.70
2019-01-09T15:26:41.807Z,1.80
2019-01-09T15:31:43.290Z,0.70
2019-01-09T15:36:44.504Z,0.60
2019-01-09T15:41:45.635Z,0.60
2019-01-09T15:46:46.731Z,0.60
2019-01-09T15:51:47.869Z,1.00
2019-01-09T15:56:48.960Z,1.10
2019-01-09T16:01:50.177Z,0.60
2019-01-09T16:06:51.302Z,0.50
2019-01-09T16:11:52.414Z,0.50
2019-01-09T16:16:53.752Z,0.50
2019-01-09T16:21:54.930Z,0.40
2019-01-09T16:26:56.031Z,0.40
2019-01-09T16:31:57.164Z,0.40
2019-01-09T16:36:58.265Z,0.40
2019-01-09T16:42:00.760Z,0.40
2019-01-09T16:47:01.891Z,0.40
2019-01-09T16:52:03.089Z,0.40
2019-01-09T16:57:04.404Z,0.40
2019-01-09T17:02:05.599Z,0.40
2019-01-09T17:07:06.900Z,0.40
2019-01-09T17:12:10.781Z,0.30
2019-01-09T17:17:12.280Z,0.30
2019-01-09T17:22:13.395Z,0.40
2019-01-09T17:27:14.625Z,0.40
2019-01-09T17:32:16.538Z,0.40
2019-01-09T17:37:18.466Z,-1.30
2019-01-09T17:42:19.667Z,0.40
2019-01-09T17:47:20.880Z,0.40
2019-01-09T17:52:22.000Z,0.40
2019-01-09T17:57:23.112Z,0.40
2019-01-09T18:02:24.219Z,0.40
2019-01-09T18:07:25.391Z,0.40
2019-01-09T18:12:26.553Z,0.40
2019-01-09T18:17:27.756Z,0.40
2019-01-09T18:22:28.964Z,0.30
2019-01-09T18:27:30.387Z,0.30
2019-01-09T18:32:35.151Z,0.30
2019-01-09T18:37:49.245Z,0.20
2019-01-09T18:43:02.967Z,0.20
2019-01-09T18:48:24.848Z,0.20
2019-01-09T18:53:26.767Z,0.20
2019-01-09T18:58:27.990Z,0.20
2019-01-09T19:03:29.217Z,0.20
2019-01-09T19:08:31.019Z,0.20
2019-01-09T19:13:32.445Z,0.20
2019-01-09T19:18:33.683Z,0.20
2019-01-09T19:23:34.801Z,0.20
2019-01-09T19:28:36.014Z,0.50
2019-01-09T19:33:37.492Z,0.30
2019-01-09T19:38:39.685Z,0.20
2019-01-09T19:43:40.828Z,0.30
2019-01-09T19:48:42.151Z,0.20
2019-01-09T19:53:43.513Z,0.20
2019-01-09T19:58:44.643Z,0.10
2019-01-09T20:03:45.869Z,0.00
2019-01-09T20:08:46.978Z,0.00
2019-01-09T20:13:48.235Z,0.00
2019-01-09T20:18:50.045Z,0.20
2019-01-09T20:23:51.693Z,0.10
2019-01-09T20:28:52.988Z,0.10
2019-01-09T20:33:54.418Z,0.10
2019-01-09T20:38:55.577Z,0.20
2019-01-09T20:43:56.896Z,0.10
2019-01-09T20:48:58.199Z,0.70
2019-01-09T20:53:59.502Z,0.10
2019-01-09T20:59:00.696Z,0.10
2019-01-09T21:04:02.041Z,0.20
2019-01-09T21:09:05.342Z,0.20
2019-01-09T21:14:06.707Z,0.20
2019-01-09T21:19:08.008Z,0.20
2019-01-09T21:24:09.105Z,0.20
2019-01-09T21:29:10.329Z,0.20
2019-01-09T21:34:11.447Z,0.20
2019-01-09T21:39:12.650Z,0.20
2019-01-09T21:44:16.054Z,0.60
2019-01-09T21:49:16.813Z,0.10
2019-01-09T21:54:18.042Z,0.10
2019-01-09T21:59:19.160Z,0.10
2019-01-09T22:04:20.454Z,0.10
2019-01-09T22:09:21.562Z,0.00
2019-01-09T22:14:22.666Z,0.10
2019-01-09T22:19:23.759Z,0.10
2019-01-09T22:24:24.942Z,0.10
2019-01-09T22:29:26.155Z,0.00
2019-01-09T22:34:27.396Z,0.00
2019-01-09T22:39:28.493Z,0.00
2019-01-09T22:44:29.619Z,0.00
2019-01-09T22:49:30.713Z,0.00
2019-01-09T22:54:36.968Z,0.00
2019-01-09T22:59:34.948Z,0.00
2019-01-09T23:04:36.053Z,0.00
2019-01-09T23:09:37.159Z,0.00
2019-01-09T23:14:38.241Z,0.60
2019-01-09T23:19:39.344Z,-0.10
2019-01-09T23:24:40.435Z,-0.10
2019-01-09T23:29:41.636Z,-0.10
2019-01-09T23:34:42.741Z,-0.10
2019-01-09T23:39:43.852Z,-0.10
2019-01-09T23:44:44.959Z,-0.10
2019-01-09T23:49:46.088Z,-0.10
2019-01-09T23:54:47.195Z,0.90
2019-01-09T23:59:48.304Z,-0.10
